Latest  Newer  Older  Last 2 hours slideshow  Last 24 hours slideshow  Refresh every 5 minutes 
Current image  Latest image  Rain/snow radar  Cloud coverage sat images 

All time is UTC (add 2 hours to UTC in wintertime, 3 hours to UTC in DST for Latvia local time)

2021/04/21 19:50 EVRA 211950Z 21002KT CAVOK 05/01 Q1003 NOSIG
2021/04/21 19:50 EVLA 211950Z AUTO 23017KT 9999 BKN093/// 07/03 Q1004
2021/04/21 19:50 EVVA 211950Z AUTO 19010KT CAVOK 06/05 Q1002
2021/04/21 19:50 EYKA 211950Z 28006KT 250V310 CAVOK 10/M00 Q1007
2021/04/21 19:50 EYPA 211950Z AUTO 25006G16KT 190V290 9999 BKN089/// 06/03 Q1006
2021/04/21 19:50 EYSA 211950Z 25011KT CAVOK 08/02 Q1006 BLU NOSIG
2021/04/21 19:50 EYVI 211950Z 25005KT CAVOK 10/M03 Q1007 NOSIG
2021/04/21 15:20 EEKA 211520Z 34005KT CAVOK 08/03 Q1002
2021/04/21 19:20 EEKE 211920Z AUTO 22006KT 190V250 9999NDV NSC 07/02 Q1002

2021/04/21 19:50 EETN 211950Z 26004KT CAVOK 05/02 Q1001 NOSIG
2021/04/21 19:20 EETU 211920Z AUTO 18003KT 120V210 9999 NCD 08/04 Q1002
   RIGA AIRPORT     EVRA               56 55N  023 58E   10   X     T          6 LV
   LIEPAJA INTL     EVLA        26406  56 31N  021 06E    4   X                8 LV
   VENTPILS         EVVA               57 21N  021 33E    6   X                8 LV
   KAUNAS           EYKA               54 54N  023 55E   77   X     T          6 LT
   PALANGA INTL     EYPA               55 55N  021 03E   10   X                6 LT
   SIAULIAI INTL    EYSA               55 54N  023 24E  135   X     T          6 LT
   VILNIUS INTL     EYVI        26730  54 38N  025 17E  197   X     T          6 LT
   KARDLA           EEKA        26116  58 59N  022 50E    4   X                8 EE
   KURESSAARE       EEKE               58 14N  022 31E    4   X                8 EE
   PARNU            EEPU               58 25N  024 28E   14   X                8 EE
   TALLINN          EETN        26038  59 24N  024 49E   40   X     T          8 EE
   TARTU            EETU               58 19N  026 41E   67   X                8 EE